sensor_id;sensor_type;location;lat;lon;timestamp;P1;durP1;ratioP1;P2;durP2;ratioP2
9328;SDS011;4703;48.748;19.142;2023-07-24T00:00:34;5.53;;;5.03;;
9328;SDS011;4703;48.748;19.142;2023-07-24T00:03:02;5.33;;;4.83;;
9328;SDS011;4703;48.748;19.142;2023-07-24T00:05:29;5.93;;;5.40;;
9328;SDS011;4703;48.748;19.142;2023-07-24T00:07:56;6.73;;;5.67;;
9328;SDS011;4703;48.748;19.142;2023-07-24T00:10:23;7.50;;;5.17;;
9328;SDS011;4703;48.748;19.142;2023-07-24T00:12:50;5.50;;;5.00;;
9328;SDS011;4703;48.748;19.142;2023-07-24T00:15:17;5.90;;;5.40;;
9328;SDS011;4703;48.748;19.142;2023-07-24T00:17:45;5.50;;;5.10;;
9328;SDS011;4703;48.748;19.142;2023-07-24T00:20:12;5.60;;;5.10;;
9328;SDS011;4703;48.748;19.142;2023-07-24T00:22:39;6.83;;;6.10;;
9328;SDS011;4703;48.748;19.142;2023-07-24T00:25:06;5.70;;;5.20;;
9328;SDS011;4703;48.748;19.142;2023-07-24T00:27:35;6.27;;;5.67;;
9328;SDS011;4703;48.748;19.142;2023-07-24T00:30:02;5.90;;;5.30;;
9328;SDS011;4703;48.748;19.142;2023-07-24T00:32:29;5.37;;;4.87;;
9328;SDS011;4703;48.748;19.142;2023-07-24T00:34:57;5.03;;;4.53;;
9328;SDS011;4703;48.748;19.142;2023-07-24T00:37:24;6.43;;;5.80;;
9328;SDS011;4703;48.748;19.142;2023-07-24T00:39:51;5.70;;;5.20;;
9328;SDS011;4703;48.748;19.142;2023-07-24T00:42:18;5.73;;;5.23;;
9328;SDS011;4703;48.748;19.142;2023-07-24T00:44:45;5.53;;;5.13;;
9328;SDS011;4703;48.748;19.142;2023-07-24T00:47:12;5.33;;;4.93;;
9328;SDS011;4703;48.748;19.142;2023-07-24T00:49:39;5.50;;;5.00;;
9328;SDS011;4703;48.748;19.142;2023-07-24T00:52:06;5.80;;;5.30;;
9328;SDS011;4703;48.748;19.142;2023-07-24T00:54:34;5.63;;;5.13;;
9328;SDS011;4703;48.748;19.142;2023-07-24T00:57:01;4.97;;;4.50;;
9328;SDS011;4703;48.748;19.142;2023-07-24T00:59:30;7.13;;;5.00;;
9328;SDS011;4703;48.748;19.142;2023-07-24T01:01:58;5.23;;;4.83;;
9328;SDS011;4703;48.748;19.142;2023-07-24T01:04:26;6.37;;;4.70;;
9328;SDS011;4703;48.748;19.142;2023-07-24T01:06:53;6.20;;;5.70;;
9328;SDS011;4703;48.748;19.142;2023-07-24T01:09:21;5.27;;;4.80;;
9328;SDS011;4703;48.748;19.142;2023-07-24T01:11:56;5.83;;;5.27;;
9328;SDS011;4703;48.748;19.142;2023-07-24T01:14:36;5.67;;;5.00;;
9328;SDS011;4703;48.748;19.142;2023-07-24T01:17:14;5.93;;;5.20;;
9328;SDS011;4703;48.748;19.142;2023-07-24T01:19:49;5.97;;;5.47;;
9328;SDS011;4703;48.748;19.142;2023-07-24T01:25:10;5.70;;;5.20;;
9328;SDS011;4703;48.748;19.142;2023-07-24T01:27:55;5.30;;;4.90;;
9328;SDS011;4703;48.748;19.142;2023-07-24T01:30:22;5.33;;;4.90;;
9328;SDS011;4703;48.748;19.142;2023-07-24T01:32:49;5.67;;;5.10;;
9328;SDS011;4703;48.748;19.142;2023-07-24T01:35:16;4.57;;;4.17;;
9328;SDS011;4703;48.748;19.142;2023-07-24T01:37:43;5.80;;;5.17;;
9328;SDS011;4703;48.748;19.142;2023-07-24T01:40:12;10.10;;;4.90;;
9328;SDS011;4703;48.748;19.142;2023-07-24T01:42:41;5.90;;;5.40;;
9328;SDS011;4703;48.748;19.142;2023-07-24T01:45:08;5.33;;;4.83;;
9328;SDS011;4703;48.748;19.142;2023-07-24T01:47:37;5.63;;;5.17;;
9328;SDS011;4703;48.748;19.142;2023-07-24T01:50:05;5.63;;;5.10;;
9328;SDS011;4703;48.748;19.142;2023-07-24T01:52:33;5.90;;;5.40;;
9328;SDS011;4703;48.748;19.142;2023-07-24T01:55:00;6.00;;;5.20;;
9328;SDS011;4703;48.748;19.142;2023-07-24T01:57:27;5.80;;;5.30;;
9328;SDS011;4703;48.748;19.142;2023-07-24T01:59:54;6.97;;;5.50;;
9328;SDS011;4703;48.748;19.142;2023-07-24T02:02:21;6.10;;;5.60;;
9328;SDS011;4703;48.748;19.142;2023-07-24T02:04:48;5.37;;;4.97;;
9328;SDS011;4703;48.748;19.142;2023-07-24T02:07:15;5.80;;;5.20;;
9328;SDS011;4703;48.748;19.142;2023-07-24T02:09:42;5.57;;;5.07;;
9328;SDS011;4703;48.748;19.142;2023-07-24T02:12:09;5.67;;;5.07;;
9328;SDS011;4703;48.748;19.142;2023-07-24T02:14:36;5.43;;;4.93;;
9328;SDS011;4703;48.748;19.142;2023-07-24T02:17:03;5.80;;;5.30;;
9328;SDS011;4703;48.748;19.142;2023-07-24T02:19:30;5.53;;;5.00;;
9328;SDS011;4703;48.748;19.142;2023-07-24T02:21:57;6.07;;;5.17;;
9328;SDS011;4703;48.748;19.142;2023-07-24T02:24:24;5.43;;;4.93;;
9328;SDS011;4703;48.748;19.142;2023-07-24T02:26:51;6.30;;;5.73;;
9328;SDS011;4703;48.748;19.142;2023-07-24T02:29:19;8.63;;;5.93;;
9328;SDS011;4703;48.748;19.142;2023-07-24T02:31:46;5.27;;;4.77;;
9328;SDS011;4703;48.748;19.142;2023-07-24T02:34:13;5.70;;;5.20;;
9328;SDS011;4703;48.748;19.142;2023-07-24T02:36:40;4.87;;;4.47;;
9328;SDS011;4703;48.748;19.142;2023-07-24T02:39:07;6.63;;;4.80;;
9328;SDS011;4703;48.748;19.142;2023-07-24T02:41:34;6.47;;;5.00;;
9328;SDS011;4703;48.748;19.142;2023-07-24T02:44:02;6.17;;;5.40;;
9328;SDS011;4703;48.748;19.142;2023-07-24T02:46:30;5.30;;;4.70;;
9328;SDS011;4703;48.748;19.142;2023-07-24T02:48:57;5.63;;;5.13;;
9328;SDS011;4703;48.748;19.142;2023-07-24T02:51:24;5.33;;;4.83;;
9328;SDS011;4703;48.748;19.142;2023-07-24T02:53:53;5.73;;;5.20;;
9328;SDS011;4703;48.748;19.142;2023-07-24T02:56:21;6.00;;;5.07;;
9328;SDS011;4703;48.748;19.142;2023-07-24T02:58:48;5.40;;;4.90;;
9328;SDS011;4703;48.748;19.142;2023-07-24T03:01:15;6.27;;;5.77;;
9328;SDS011;4703;48.748;19.142;2023-07-24T03:03:42;5.73;;;5.23;;
9328;SDS011;4703;48.748;19.142;2023-07-24T03:06:09;6.50;;;5.87;;
9328;SDS011;4703;48.748;19.142;2023-07-24T03:08:36;5.93;;;5.43;;
9328;SDS011;4703;48.748;19.142;2023-07-24T03:11:07;6.03;;;5.37;;
9328;SDS011;4703;48.748;19.142;2023-07-24T03:13:34;5.20;;;4.77;;
9328;SDS011;4703;48.748;19.142;2023-07-24T03:16:01;6.17;;;5.67;;
9328;SDS011;4703;48.748;19.142;2023-07-24T03:18:28;5.73;;;5.23;;
9328;SDS011;4703;48.748;19.142;2023-07-24T03:20:56;5.93;;;5.43;;
9328;SDS011;4703;48.748;19.142;2023-07-24T03:23:25;5.87;;;5.30;;
9328;SDS011;4703;48.748;19.142;2023-07-24T03:25:52;5.47;;;4.80;;
9328;SDS011;4703;48.748;19.142;2023-07-24T03:28:19;6.00;;;5.40;;
9328;SDS011;4703;48.748;19.142;2023-07-24T03:30:46;6.70;;;5.50;;
9328;SDS011;4703;48.748;19.142;2023-07-24T03:33:13;6.10;;;5.27;;
9328;SDS011;4703;48.748;19.142;2023-07-24T03:35:40;5.20;;;4.70;;
9328;SDS011;4703;48.748;19.142;2023-07-24T03:38:07;5.70;;;5.30;;
9328;SDS011;4703;48.748;19.142;2023-07-24T03:40:34;5.40;;;4.80;;
9328;SDS011;4703;48.748;19.142;2023-07-24T03:43:01;5.87;;;5.37;;
9328;SDS011;4703;48.748;19.142;2023-07-24T03:45:28;6.40;;;5.40;;
9328;SDS011;4703;48.748;19.142;2023-07-24T03:47:55;5.40;;;5.00;;
9328;SDS011;4703;48.748;19.142;2023-07-24T03:50:22;5.37;;;4.87;;
9328;SDS011;4703;48.748;19.142;2023-07-24T03:52:49;5.80;;;5.27;;
9328;SDS011;4703;48.748;19.142;2023-07-24T03:55:16;6.43;;;5.83;;
9328;SDS011;4703;48.748;19.142;2023-07-24T03:57:43;5.40;;;5.00;;
9328;SDS011;4703;48.748;19.142;2023-07-24T04:00:10;7.43;;;5.40;;
9328;SDS011;4703;48.748;19.142;2023-07-24T04:02:38;5.97;;;5.50;;
9328;SDS011;4703;48.748;19.142;2023-07-24T04:05:06;5.07;;;4.57;;
9328;SDS011;4703;48.748;19.142;2023-07-24T04:07:33;6.87;;;6.27;;
9328;SDS011;4703;48.748;19.142;2023-07-24T04:10:03;6.33;;;5.77;;
9328;SDS011;4703;48.748;19.142;2023-07-24T04:12:31;6.07;;;5.50;;
9328;SDS011;4703;48.748;19.142;2023-07-24T04:14:58;6.63;;;6.03;;
9328;SDS011;4703;48.748;19.142;2023-07-24T04:17:24;5.33;;;4.83;;
9328;SDS011;4703;48.748;19.142;2023-07-24T04:19:52;5.43;;;4.93;;
9328;SDS011;4703;48.748;19.142;2023-07-24T04:22:19;5.93;;;5.40;;
9328;SDS011;4703;48.748;19.142;2023-07-24T04:24:46;5.37;;;4.90;;
9328;SDS011;4703;48.748;19.142;2023-07-24T04:27:15;6.10;;;5.50;;
9328;SDS011;4703;48.748;19.142;2023-07-24T04:29:42;11.73;;;8.87;;
9328;SDS011;4703;48.748;19.142;2023-07-24T04:32:09;7.00;;;6.30;;
9328;SDS011;4703;48.748;19.142;2023-07-24T04:34:36;8.90;;;8.00;;
9328;SDS011;4703;48.748;19.142;2023-07-24T04:37:03;7.33;;;6.33;;
9328;SDS011;4703;48.748;19.142;2023-07-24T04:39:31;6.07;;;5.57;;
9328;SDS011;4703;48.748;19.142;2023-07-24T04:41:58;5.83;;;5.33;;
9328;SDS011;4703;48.748;19.142;2023-07-24T04:44:24;5.87;;;5.37;;
9328;SDS011;4703;48.748;19.142;2023-07-24T04:46:51;5.63;;;5.10;;
9328;SDS011;4703;48.748;19.142;2023-07-24T04:49:18;6.80;;;5.30;;
9328;SDS011;4703;48.748;19.142;2023-07-24T04:51:45;8.13;;;7.30;;
9328;SDS011;4703;48.748;19.142;2023-07-24T04:54:12;7.00;;;6.27;;
9328;SDS011;4703;48.748;19.142;2023-07-24T04:56:39;6.47;;;5.90;;
9328;SDS011;4703;48.748;19.142;2023-07-24T04:59:06;6.40;;;5.80;;
9328;SDS011;4703;48.748;19.142;2023-07-24T05:01:33;5.30;;;4.90;;
9328;SDS011;4703;48.748;19.142;2023-07-24T05:04:00;6.50;;;5.90;;
9328;SDS011;4703;48.748;19.142;2023-07-24T05:06:27;5.40;;;4.90;;
9328;SDS011;4703;48.748;19.142;2023-07-24T05:08:55;5.33;;;4.93;;
9328;SDS011;4703;48.748;19.142;2023-07-24T05:11:22;6.23;;;5.63;;
9328;SDS011;4703;48.748;19.142;2023-07-24T05:13:49;5.83;;;5.33;;
9328;SDS011;4703;48.748;19.142;2023-07-24T05:16:16;6.07;;;5.57;;
9328;SDS011;4703;48.748;19.142;2023-07-24T05:18:43;5.57;;;5.07;;
9328;SDS011;4703;48.748;19.142;2023-07-24T05:21:10;6.27;;;5.77;;
9328;SDS011;4703;48.748;19.142;2023-07-24T05:23:37;4.73;;;4.30;;
9328;SDS011;4703;48.748;19.142;2023-07-24T05:26:03;5.90;;;5.40;;
9328;SDS011;4703;48.748;19.142;2023-07-24T05:28:31;5.30;;;4.80;;
9328;SDS011;4703;48.748;19.142;2023-07-24T05:31:02;5.97;;;5.37;;
9328;SDS011;4703;48.748;19.142;2023-07-24T05:33:30;5.87;;;5.37;;
9328;SDS011;4703;48.748;19.142;2023-07-24T05:35:58;5.57;;;5.00;;
9328;SDS011;4703;48.748;19.142;2023-07-24T05:38:28;5.60;;;5.10;;
9328;SDS011;4703;48.748;19.142;2023-07-24T05:43:24;8.23;;;5.70;;
9328;SDS011;4703;48.748;19.142;2023-07-24T05:45:53;6.80;;;6.20;;
9328;SDS011;4703;48.748;19.142;2023-07-24T05:48:21;5.80;;;5.30;;
9328;SDS011;4703;48.748;19.142;2023-07-24T05:50:49;6.27;;;5.10;;
9328;SDS011;4703;48.748;19.142;2023-07-24T05:53:16;6.30;;;5.70;;
9328;SDS011;4703;48.748;19.142;2023-07-24T05:55:44;6.30;;;5.80;;
9328;SDS011;4703;48.748;19.142;2023-07-24T05:58:11;6.30;;;5.70;;
9328;SDS011;4703;48.748;19.142;2023-07-24T06:00:38;8.43;;;6.10;;
9328;SDS011;4703;48.748;19.142;2023-07-24T06:03:05;6.23;;;5.63;;
9328;SDS011;4703;48.748;19.142;2023-07-24T06:05:34;6.67;;;5.97;;
9328;SDS011;4703;48.748;19.142;2023-07-24T06:08:01;7.43;;;6.83;;
9328;SDS011;4703;48.748;19.142;2023-07-24T06:10:28;6.83;;;6.00;;
9328;SDS011;4703;48.748;19.142;2023-07-24T06:12:56;6.63;;;6.03;;
9328;SDS011;4703;48.748;19.142;2023-07-24T06:15:23;6.67;;;6.07;;
9328;SDS011;4703;48.748;19.142;2023-07-24T06:17:50;6.17;;;5.57;;
9328;SDS011;4703;48.748;19.142;2023-07-24T06:20:20;6.30;;;5.70;;
9328;SDS011;4703;48.748;19.142;2023-07-24T06:22:47;7.30;;;6.60;;
9328;SDS011;4703;48.748;19.142;2023-07-24T06:25:14;7.27;;;6.47;;
9328;SDS011;4703;48.748;19.142;2023-07-24T06:27:41;7.00;;;6.30;;
9328;SDS011;4703;48.748;19.142;2023-07-24T06:30:08;7.33;;;6.40;;
9328;SDS011;4703;48.748;19.142;2023-07-24T06:32:41;6.27;;;5.73;;
9328;SDS011;4703;48.748;19.142;2023-07-24T06:35:09;7.20;;;6.50;;
9328;SDS011;4703;48.748;19.142;2023-07-24T06:37:36;6.70;;;6.10;;
9328;SDS011;4703;48.748;19.142;2023-07-24T06:40:03;6.50;;;5.90;;
9328;SDS011;4703;48.748;19.142;2023-07-24T06:42:30;6.60;;;6.00;;
9328;SDS011;4703;48.748;19.142;2023-07-24T06:44:57;7.27;;;6.57;;
9328;SDS011;4703;48.748;19.142;2023-07-24T06:47:25;7.17;;;6.47;;
9328;SDS011;4703;48.748;19.142;2023-07-24T06:49:52;7.40;;;6.77;;
9328;SDS011;4703;48.748;19.142;2023-07-24T06:52:19;7.33;;;6.53;;
9328;SDS011;4703;48.748;19.142;2023-07-24T06:54:46;6.37;;;5.87;;
9328;SDS011;4703;48.748;19.142;2023-07-24T06:57:13;5.97;;;5.47;;
9328;SDS011;4703;48.748;19.142;2023-07-24T06:59:40;32.43;;;24.40;;
9328;SDS011;4703;48.748;19.142;2023-07-24T07:02:07;21.53;;;16.80;;
9328;SDS011;4703;48.748;19.142;2023-07-24T07:04:34;11.20;;;9.80;;
9328;SDS011;4703;48.748;19.142;2023-07-24T07:07:01;7.47;;;6.70;;
9328;SDS011;4703;48.748;19.142;2023-07-24T07:09:28;10.10;;;6.77;;
9328;SDS011;4703;48.748;19.142;2023-07-24T07:11:55;6.90;;;6.23;;
9328;SDS011;4703;48.748;19.142;2023-07-24T07:14:23;7.00;;;6.30;;
9328;SDS011;4703;48.748;19.142;2023-07-24T07:16:50;6.80;;;6.20;;
9328;SDS011;4703;48.748;19.142;2023-07-24T07:19:17;7.53;;;6.83;;
9328;SDS011;4703;48.748;19.142;2023-07-24T07:21:44;6.77;;;6.17;;
9328;SDS011;4703;48.748;19.142;2023-07-24T07:24:11;7.87;;;6.17;;
9328;SDS011;4703;48.748;19.142;2023-07-24T07:26:38;20.63;;;16.37;;
9328;SDS011;4703;48.748;19.142;2023-07-24T07:29:05;18.73;;;16.73;;
9328;SDS011;4703;48.748;19.142;2023-07-24T07:31:32;41.23;;;34.63;;
9328;SDS011;4703;48.748;19.142;2023-07-24T07:33:59;21.30;;;16.77;;
9328;SDS011;4703;48.748;19.142;2023-07-24T07:36:26;11.90;;;9.93;;
9328;SDS011;4703;48.748;19.142;2023-07-24T07:38:53;9.90;;;9.00;;
9328;SDS011;4703;48.748;19.142;2023-07-24T07:41:20;9.53;;;8.50;;
9328;SDS011;4703;48.748;19.142;2023-07-24T07:43:47;7.63;;;6.93;;
9328;SDS011;4703;48.748;19.142;2023-07-24T07:46:14;7.70;;;6.70;;
9328;SDS011;4703;48.748;19.142;2023-07-24T07:48:42;7.00;;;6.40;;
9328;SDS011;4703;48.748;19.142;2023-07-24T07:51:08;7.00;;;6.30;;
9328;SDS011;4703;48.748;19.142;2023-07-24T07:53:36;7.50;;;6.87;;
9328;SDS011;4703;48.748;19.142;2023-07-24T07:56:03;7.43;;;6.73;;
9328;SDS011;4703;48.748;19.142;2023-07-24T07:58:30;6.27;;;5.77;;
9328;SDS011;4703;48.748;19.142;2023-07-24T08:00:57;7.67;;;6.97;;
9328;SDS011;4703;48.748;19.142;2023-07-24T08:03:24;7.03;;;6.40;;
9328;SDS011;4703;48.748;19.142;2023-07-24T08:05:51;7.70;;;7.00;;
9328;SDS011;4703;48.748;19.142;2023-07-24T08:08:23;7.43;;;6.77;;
9328;SDS011;4703;48.748;19.142;2023-07-24T08:10:50;7.73;;;7.03;;
9328;SDS011;4703;48.748;19.142;2023-07-24T08:13:17;7.23;;;6.63;;
9328;SDS011;4703;48.748;19.142;2023-07-24T08:15:44;7.90;;;7.20;;
9328;SDS011;4703;48.748;19.142;2023-07-24T08:18:11;9.03;;;8.10;;
9328;SDS011;4703;48.748;19.142;2023-07-24T08:20:38;7.60;;;6.80;;
9328;SDS011;4703;48.748;19.142;2023-07-24T08:23:06;6.50;;;6.00;;
9328;SDS011;4703;48.748;19.142;2023-07-24T08:25:33;8.30;;;7.47;;
9328;SDS011;4703;48.748;19.142;2023-07-24T08:28:00;8.57;;;7.77;;
9328;SDS011;4703;48.748;19.142;2023-07-24T08:30:31;8.60;;;7.80;;
9328;SDS011;4703;48.748;19.142;2023-07-24T08:33:00;8.40;;;7.63;;
9328;SDS011;4703;48.748;19.142;2023-07-24T08:35:27;7.93;;;7.23;;
9328;SDS011;4703;48.748;19.142;2023-07-24T08:37:55;8.83;;;7.93;;
9328;SDS011;4703;48.748;19.142;2023-07-24T08:40:22;8.10;;;7.40;;
9328;SDS011;4703;48.748;19.142;2023-07-24T08:42:49;8.67;;;7.90;;
9328;SDS011;4703;48.748;19.142;2023-07-24T08:45:19;8.40;;;7.70;;
9328;SDS011;4703;48.748;19.142;2023-07-24T08:47:47;9.90;;;7.67;;
9328;SDS011;4703;48.748;19.142;2023-07-24T08:50:15;8.00;;;7.30;;
9328;SDS011;4703;48.748;19.142;2023-07-24T08:52:43;7.80;;;7.10;;
9328;SDS011;4703;48.748;19.142;2023-07-24T08:55:13;8.17;;;7.23;;
9328;SDS011;4703;48.748;19.142;2023-07-24T08:57:40;8.73;;;7.80;;
9328;SDS011;4703;48.748;19.142;2023-07-24T09:00:07;8.50;;;7.70;;
9328;SDS011;4703;48.748;19.142;2023-07-24T09:02:35;8.80;;;8.03;;
9328;SDS011;4703;48.748;19.142;2023-07-24T09:05:02;8.73;;;7.90;;
9328;SDS011;4703;48.748;19.142;2023-07-24T09:07:31;9.03;;;8.20;;
9328;SDS011;4703;48.748;19.142;2023-07-24T09:09:59;8.50;;;7.47;;
9328;SDS011;4703;48.748;19.142;2023-07-24T09:12:26;8.73;;;7.93;;
9328;SDS011;4703;48.748;19.142;2023-07-24T09:15:03;8.50;;;7.80;;
9328;SDS011;4703;48.748;19.142;2023-07-24T09:17:33;9.07;;;8.17;;
9328;SDS011;4703;48.748;19.142;2023-07-24T09:20:00;8.00;;;7.20;;
9328;SDS011;4703;48.748;19.142;2023-07-24T09:22:28;8.80;;;8.10;;
9328;SDS011;4703;48.748;19.142;2023-07-24T09:24:56;9.30;;;8.60;;
9328;SDS011;4703;48.748;19.142;2023-07-24T09:27:25;8.67;;;7.97;;
9328;SDS011;4703;48.748;19.142;2023-07-24T09:29:56;9.00;;;8.17;;
9328;SDS011;4703;48.748;19.142;2023-07-24T09:32:25;9.93;;;8.93;;
9328;SDS011;4703;48.748;19.142;2023-07-24T09:34:53;9.57;;;8.30;;
9328;SDS011;4703;48.748;19.142;2023-07-24T09:37:31;8.57;;;7.77;;
9328;SDS011;4703;48.748;19.142;2023-07-24T09:40:04;9.00;;;8.00;;
9328;SDS011;4703;48.748;19.142;2023-07-24T09:42:32;8.07;;;7.13;;
9328;SDS011;4703;48.748;19.142;2023-07-24T09:45:10;8.20;;;7.40;;
9328;SDS011;4703;48.748;19.142;2023-07-24T09:47:37;8.50;;;7.70;;
9328;SDS011;4703;48.748;19.142;2023-07-24T09:50:09;9.00;;;7.13;;
9328;SDS011;4703;48.748;19.142;2023-07-24T09:52:37;8.10;;;7.30;;
9328;SDS011;4703;48.748;19.142;2023-07-24T09:55:10;10.63;;;8.87;;
9328;SDS011;4703;48.748;19.142;2023-07-24T09:57:43;9.10;;;8.20;;
9328;SDS011;4703;48.748;19.142;2023-07-24T10:00:11;7.30;;;6.70;;
9328;SDS011;4703;48.748;19.142;2023-07-24T10:02:39;8.33;;;7.73;;
9328;SDS011;4703;48.748;19.142;2023-07-24T10:05:07;9.43;;;8.47;;
9328;SDS011;4703;48.748;19.142;2023-07-24T10:07:35;10.07;;;8.57;;
9328;SDS011;4703;48.748;19.142;2023-07-24T10:10:02;8.90;;;8.10;;
9328;SDS011;4703;48.748;19.142;2023-07-24T10:12:29;8.67;;;7.87;;
9328;SDS011;4703;48.748;19.142;2023-07-24T10:14:58;9.50;;;8.70;;
9328;SDS011;4703;48.748;19.142;2023-07-24T10:17:36;9.63;;;8.63;;
9328;SDS011;4703;48.748;19.142;2023-07-24T10:20:05;8.00;;;7.30;;
9328;SDS011;4703;48.748;19.142;2023-07-24T10:22:36;9.77;;;8.77;;
9328;SDS011;4703;48.748;19.142;2023-07-24T10:25:08;9.17;;;8.27;;
9328;SDS011;4703;48.748;19.142;2023-07-24T10:27:44;9.37;;;8.43;;
9328;SDS011;4703;48.748;19.142;2023-07-24T10:30:13;9.70;;;8.90;;
9328;SDS011;4703;48.748;19.142;2023-07-24T10:33:06;8.80;;;8.00;;
9328;SDS011;4703;48.748;19.142;2023-07-24T10:35:38;7.57;;;6.87;;
9328;SDS011;4703;48.748;19.142;2023-07-24T10:38:07;8.90;;;8.10;;
9328;SDS011;4703;48.748;19.142;2023-07-24T10:40:35;8.90;;;8.10;;
9328;SDS011;4703;48.748;19.142;2023-07-24T10:45:38;7.80;;;7.17;;
9328;SDS011;4703;48.748;19.142;2023-07-24T10:48:19;8.83;;;8.13;;
9328;SDS011;4703;48.748;19.142;2023-07-24T10:50:51;8.43;;;7.63;;
9328;SDS011;4703;48.748;19.142;2023-07-24T10:53:21;8.30;;;7.60;;
9328;SDS011;4703;48.748;19.142;2023-07-24T10:55:49;8.17;;;7.30;;
9328;SDS011;4703;48.748;19.142;2023-07-24T10:58:18;7.53;;;6.83;;
9328;SDS011;4703;48.748;19.142;2023-07-24T11:00:45;8.03;;;6.60;;
9328;SDS011;4703;48.748;19.142;2023-07-24T11:03:14;7.30;;;6.67;;
9328;SDS011;4703;48.748;19.142;2023-07-24T11:05:41;7.43;;;6.73;;
9328;SDS011;4703;48.748;19.142;2023-07-24T11:08:13;7.10;;;6.40;;
9328;SDS011;4703;48.748;19.142;2023-07-24T11:13:17;7.60;;;7.00;;
9328;SDS011;4703;48.748;19.142;2023-07-24T11:15:47;8.60;;;7.80;;
9328;SDS011;4703;48.748;19.142;2023-07-24T11:18:16;7.40;;;6.80;;
9328;SDS011;4703;48.748;19.142;2023-07-24T11:20:44;7.57;;;6.87;;
9328;SDS011;4703;48.748;19.142;2023-07-24T11:23:17;7.97;;;7.30;;
9328;SDS011;4703;48.748;19.142;2023-07-24T11:25:45;8.23;;;7.50;;
9328;SDS011;4703;48.748;19.142;2023-07-24T11:28:14;8.73;;;7.93;;
9328;SDS011;4703;48.748;19.142;2023-07-24T11:30:41;8.20;;;7.40;;
9328;SDS011;4703;48.748;19.142;2023-07-24T11:33:10;9.17;;;8.37;;
9328;SDS011;4703;48.748;19.142;2023-07-24T11:35:44;8.53;;;7.50;;
9328;SDS011;4703;48.748;19.142;2023-07-24T11:38:12;8.53;;;7.73;;
9328;SDS011;4703;48.748;19.142;2023-07-24T11:40:43;8.20;;;7.50;;
9328;SDS011;4703;48.748;19.142;2023-07-24T11:43:21;10.50;;;7.80;;
9328;SDS011;4703;48.748;19.142;2023-07-24T11:45:51;9.60;;;8.17;;
9328;SDS011;4703;48.748;19.142;2023-07-24T11:48:19;8.33;;;7.63;;
9328;SDS011;4703;48.748;19.142;2023-07-24T11:50:54;8.77;;;7.97;;
9328;SDS011;4703;48.748;19.142;2023-07-24T11:53:27;9.17;;;8.37;;
9328;SDS011;4703;48.748;19.142;2023-07-24T11:55:57;9.23;;;8.43;;
9328;SDS011;4703;48.748;19.142;2023-07-24T11:58:25;9.50;;;8.70;;
9328;SDS011;4703;48.748;19.142;2023-07-24T12:00:53;8.63;;;7.83;;
9328;SDS011;4703;48.748;19.142;2023-07-24T12:03:22;10.63;;;9.60;;
9328;SDS011;4703;48.748;19.142;2023-07-24T12:05:52;9.40;;;8.57;;
9328;SDS011;4703;48.748;19.142;2023-07-24T12:08:34;9.60;;;8.60;;
9328;SDS011;4703;48.748;19.142;2023-07-24T12:11:04;9.73;;;8.93;;
9328;SDS011;4703;48.748;19.142;2023-07-24T12:13:42;9.80;;;8.77;;
9328;SDS011;4703;48.748;19.142;2023-07-24T12:16:09;9.27;;;8.30;;
9328;SDS011;4703;48.748;19.142;2023-07-24T12:18:36;10.20;;;9.20;;
9328;SDS011;4703;48.748;19.142;2023-07-24T12:21:03;8.70;;;7.90;;
9328;SDS011;4703;48.748;19.142;2023-07-24T12:23:30;9.43;;;8.53;;
9328;SDS011;4703;48.748;19.142;2023-07-24T12:25:57;10.07;;;9.17;;
9328;SDS011;4703;48.748;19.142;2023-07-24T12:28:24;9.67;;;8.77;;
9328;SDS011;4703;48.748;19.142;2023-07-24T12:30:51;9.90;;;9.10;;
9328;SDS011;4703;48.748;19.142;2023-07-24T12:33:18;10.37;;;8.70;;
9328;SDS011;4703;48.748;19.142;2023-07-24T12:35:50;9.63;;;8.77;;
9328;SDS011;4703;48.748;19.142;2023-07-24T12:38:17;9.90;;;9.00;;
9328;SDS011;4703;48.748;19.142;2023-07-24T12:40:45;8.93;;;8.13;;
9328;SDS011;4703;48.748;19.142;2023-07-24T12:43:12;9.63;;;8.77;;
9328;SDS011;4703;48.748;19.142;2023-07-24T12:45:41;11.90;;;9.93;;
9328;SDS011;4703;48.748;19.142;2023-07-24T12:48:08;10.07;;;9.17;;
9328;SDS011;4703;48.748;19.142;2023-07-24T12:50:35;10.53;;;9.50;;
9328;SDS011;4703;48.748;19.142;2023-07-24T12:53:02;9.80;;;9.00;;
9328;SDS011;4703;48.748;19.142;2023-07-24T12:55:34;10.27;;;9.20;;
9328;SDS011;4703;48.748;19.142;2023-07-24T12:58:01;10.87;;;9.77;;
9328;SDS011;4703;48.748;19.142;2023-07-24T13:00:29;11.07;;;9.97;;
9328;SDS011;4703;48.748;19.142;2023-07-24T13:02:58;9.83;;;9.03;;
9328;SDS011;4703;48.748;19.142;2023-07-24T13:05:25;10.00;;;8.80;;
9328;SDS011;4703;48.748;19.142;2023-07-24T13:07:52;9.70;;;8.87;;
9328;SDS011;4703;48.748;19.142;2023-07-24T13:10:19;9.60;;;8.80;;
9328;SDS011;4703;48.748;19.142;2023-07-24T13:12:46;10.27;;;9.30;;
9328;SDS011;4703;48.748;19.142;2023-07-24T13:15:13;11.17;;;10.00;;
9328;SDS011;4703;48.748;19.142;2023-07-24T13:17:40;10.60;;;9.60;;
9328;SDS011;4703;48.748;19.142;2023-07-24T13:20:07;9.93;;;8.93;;
9328;SDS011;4703;48.748;19.142;2023-07-24T13:22:35;10.17;;;9.27;;
9328;SDS011;4703;48.748;19.142;2023-07-24T13:25:02;10.60;;;9.50;;
9328;SDS011;4703;48.748;19.142;2023-07-24T13:27:29;10.60;;;9.50;;
9328;SDS011;4703;48.748;19.142;2023-07-24T13:29:56;18.80;;;16.90;;
9328;SDS011;4703;48.748;19.142;2023-07-24T13:32:23;15.73;;;14.20;;
9328;SDS011;4703;48.748;19.142;2023-07-24T13:34:50;23.83;;;21.07;;
9328;SDS011;4703;48.748;19.142;2023-07-24T13:37:17;10.70;;;9.70;;
9328;SDS011;4703;48.748;19.142;2023-07-24T13:39:44;10.63;;;9.63;;
9328;SDS011;4703;48.748;19.142;2023-07-24T13:42:11;11.07;;;10.17;;
9328;SDS011;4703;48.748;19.142;2023-07-24T13:44:38;10.00;;;9.00;;
9328;SDS011;4703;48.748;19.142;2023-07-24T13:47:05;12.03;;;10.73;;
9328;SDS011;4703;48.748;19.142;2023-07-24T13:49:32;10.20;;;9.30;;
9328;SDS011;4703;48.748;19.142;2023-07-24T13:51:59;11.23;;;10.23;;
9328;SDS011;4703;48.748;19.142;2023-07-24T13:54:26;10.37;;;9.50;;
9328;SDS011;4703;48.748;19.142;2023-07-24T13:56:53;11.30;;;10.30;;
9328;SDS011;4703;48.748;19.142;2023-07-24T13:59:20;11.00;;;10.00;;
9328;SDS011;4703;48.748;19.142;2023-07-24T14:01:47;11.83;;;10.73;;
9328;SDS011;4703;48.748;19.142;2023-07-24T14:04:14;11.70;;;10.60;;
9328;SDS011;4703;48.748;19.142;2023-07-24T14:06:41;13.30;;;10.00;;
9328;SDS011;4703;48.748;19.142;2023-07-24T14:09:08;10.47;;;9.37;;
9328;SDS011;4703;48.748;19.142;2023-07-24T14:11:35;12.23;;;10.13;;
9328;SDS011;4703;48.748;19.142;2023-07-24T14:14:02;11.70;;;10.50;;
9328;SDS011;4703;48.748;19.142;2023-07-24T14:16:29;11.80;;;10.80;;
9328;SDS011;4703;48.748;19.142;2023-07-24T14:18:56;10.93;;;9.83;;
9328;SDS011;4703;48.748;19.142;2023-07-24T14:21:23;10.27;;;9.27;;
9328;SDS011;4703;48.748;19.142;2023-07-24T14:23:50;10.10;;;9.20;;
9328;SDS011;4703;48.748;19.142;2023-07-24T14:26:17;12.30;;;11.10;;
9328;SDS011;4703;48.748;19.142;2023-07-24T14:28:45;11.83;;;10.73;;
9328;SDS011;4703;48.748;19.142;2023-07-24T14:31:12;12.60;;;11.30;;
9328;SDS011;4703;48.748;19.142;2023-07-24T14:33:39;10.53;;;9.53;;
9328;SDS011;4703;48.748;19.142;2023-07-24T14:36:06;14.13;;;11.67;;
9328;SDS011;4703;48.748;19.142;2023-07-24T14:38:33;11.70;;;10.63;;
9328;SDS011;4703;48.748;19.142;2023-07-24T14:41:00;12.00;;;9.80;;
9328;SDS011;4703;48.748;19.142;2023-07-24T14:43:26;11.90;;;10.70;;
9328;SDS011;4703;48.748;19.142;2023-07-24T14:45:53;12.40;;;10.57;;
9328;SDS011;4703;48.748;19.142;2023-07-24T14:48:21;11.80;;;10.50;;
9328;SDS011;4703;48.748;19.142;2023-07-24T14:50:48;12.03;;;10.83;;
9328;SDS011;4703;48.748;19.142;2023-07-24T14:53:15;11.83;;;10.63;;
9328;SDS011;4703;48.748;19.142;2023-07-24T14:55:42;13.77;;;11.77;;
9328;SDS011;4703;48.748;19.142;2023-07-24T14:58:09;12.13;;;10.90;;
9328;SDS011;4703;48.748;19.142;2023-07-24T15:00:36;13.03;;;10.60;;
9328;SDS011;4703;48.748;19.142;2023-07-24T15:03:03;12.17;;;10.73;;
9328;SDS011;4703;48.748;19.142;2023-07-24T15:05:30;11.50;;;10.40;;
9328;SDS011;4703;48.748;19.142;2023-07-24T15:07:57;12.50;;;11.20;;
9328;SDS011;4703;48.748;19.142;2023-07-24T15:10:24;11.53;;;10.30;;
9328;SDS011;4703;48.748;19.142;2023-07-24T15:12:51;11.93;;;10.70;;